Time;durP1;ratioP1;P1;durP2;ratioP2;P2;SDS_P1;SDS_P2;PMS_P1;PMS_P2;Temp;Humidity;BMP_temperature;BMP_pressure;BME280_temperature;BME280_humidity;BME280_pressure;Samples;Min_cycle;Max_cycle;Signal;HPM_P1;HPM_P2
2022/12/12 08:14:49;;;;;;;25.43;11.13;;;1.80;78.80;;;;;;4924210;29;20263;-96
2022/12/12 08:17:45;;;;;;;24.03;11.80;;;1.80;78.90;;;;;;4909381;29;20208;-96
2022/12/12 08:20:21;;;;;;;20.60;9.67;;;1.80;78.70;;;;;;4906682;29;20216;-96
2022/12/12 08:23:07;;;;;;;23.00;10.63;;;1.70;79.10;;;;;;4909206;29;20566;-96
2022/12/12 08:26:05;;;;;;;19.17;10.47;;;1.80;78.90;;;;;;4901392;29;20216;-96
2022/12/12 08:28:43;;;;;;;20.20;11.23;;;1.70;79.10;;;;;;4903125;29;20281;-96
2022/12/12 08:31:16;;;;;;;23.70;10.03;;;1.70;79.00;;;;;;4905134;29;20204;-96
2022/12/12 08:33:50;;;;;;;21.23;10.07;;;1.80;79.10;;;;;;4903043;29;20606;-96
2022/12/12 08:36:22;;;;;;;23.40;10.47;;;1.70;79.30;;;;;;4904660;29;20262;-96
2022/12/12 08:38:57;;;;;;;23.83;12.27;;;1.70;79.40;;;;;;4904320;29;20206;-96
2022/12/12 08:41:35;;;;;;;21.70;10.60;;;1.80;79.50;;;;;;4925262;29;20218;-96
2022/12/12 08:44:06;;;;;;;26.03;11.67;;;1.70;79.10;;;;;;4921238;29;20270;-96
2022/12/12 08:46:36;;;;;;;22.07;11.20;;;1.80;79.10;;;;;;4923031;29;20214;-95
2022/12/12 08:49:15;;;;;;;23.23;11.77;;;1.80;79.10;;;;;;4922288;29;20675;-96
2022/12/12 08:51:59;;;;;;;27.47;13.07;;;1.70;78.90;;;;;;4913470;29;20276;-96
2022/12/12 08:54:31;;;;;;;32.20;12.97;;;1.80;79.30;;;;;;4915661;29;20268;-96
2022/12/12 08:57:06;;;;;;;31.07;13.10;;;1.80;79.10;;;;;;4904478;29;20279;-96
2022/12/12 08:59:40;;;;;;;32.20;15.27;;;1.80;79.60;;;;;;4908572;29;20216;-96
2022/12/12 09:02:23;;;;;;;37.10;16.87;;;1.80;79.60;;;;;;4911274;29;20265;-96
2022/12/12 09:05:08;;;;;;;31.47;14.17;;;1.80;79.90;;;;;;4914884;29;20284;-96
2022/12/12 09:07:59;;;;;;;34.57;15.83;;;1.90;80.30;;;;;;4930040;29;20219;-96
2022/12/12 09:13:34;;;;;;;42.63;17.40;;;1.90;79.50;;;;;;4918046;29;20232;-96
2022/12/12 09:16:05;;;;;;;33.07;14.50;;;1.80;79.50;;;;;;4912408;29;20196;-96
2022/12/12 09:18:42;;;;;;;25.73;13.70;;;1.80;79.20;;;;;;4932665;29;20294;-96
2022/12/12 09:21:16;;;;;;;28.07;14.17;;;1.80;79.10;;;;;;4927348;29;20663;-96
2022/12/12 09:24:42;;;;;;;28.70;14.53;;;1.80;79.10;;;;;;4929847;29;20212;-96
2022/12/12 09:27:39;;;;;;;32.73;12.93;;;1.80;79.80;;;;;;4931846;29;20203;-96
2022/12/12 09:37:31;;;;;;;27.00;13.43;;;1.90;80.70;;;;;;4930498;29;20211;-96
2022/12/12 09:40:11;;;;;;;33.03;14.90;;;1.90;80.70;;;;;;4915181;29;20207;-96
2022/12/12 09:43:12;;;;;;;29.23;14.37;;;2.00;80.80;;;;;;4911765;29;20211;-96
2022/12/12 09:49:37;;;;;;;27.30;14.23;;;2.10;80.80;;;;;;4912388;29;20244;-96
2022/12/12 09:55:36;;;;;;;26.90;13.70;;;2.20;80.80;;;;;;5272803;23;20596;-96
2022/12/12 10:59:14;;;;;;;17.70;9.33;;;2.80;79.50;;;;;;4922326;29;20230;-96
2022/12/12 12:53:02;;;;;;;16.63;9.30;;;8.30;68.20;;;;;;4937169;29;20206;-96
2022/12/12 12:56:25;;;;;;;15.00;8.67;;;8.40;68.50;;;;;;4948765;29;20259;-96
2022/12/12 12:59:05;;;;;;;18.27;9.30;;;8.60;68.00;;;;;;4948460;29;20278;-96
2022/12/12 13:02:15;;;;;;;14.57;8.53;;;8.60;68.80;;;;;;4948725;29;20736;-96
2022/12/12 13:05:11;;;;;;;14.23;8.10;;;8.70;67.10;;;;;;4948325;29;20567;-96
2022/12/12 13:14:21;;;;;;;16.97;8.33;;;9.00;66.40;;;;;;4930826;29;20239;-96
2022/12/12 13:17:08;;;;;;;14.87;8.33;;;9.10;65.20;;;;;;4928934;29;20271;-95
2022/12/12 13:19:57;;;;;;;18.63;9.33;;;9.00;65.50;;;;;;4932437;29;20240;-96
2022/12/12 13:23:03;;;;;;;15.73;9.87;;;9.10;66.00;;;;;;4933167;29;20203;-96
2022/12/12 13:35:39;;;;;;;15.30;9.10;;;9.20;63.90;;;;;;4951058;29;20212;-96
2022/12/12 13:45:12;;;;;;;22.80;10.07;;;9.00;62.90;;;;;;4930552;29;20201;-96
2022/12/12 14:05:13;;;;;;;20.27;9.60;;;8.00;62.40;;;;;;4945168;29;20267;-96
2022/12/12 14:15:14;;;;;;;17.53;8.13;;;7.60;62.40;;;;;;4956482;29;20231;-96
2022/12/12 14:18:08;;;;;;;18.50;8.73;;;7.40;62.70;;;;;;4955766;29;20202;-96
2022/12/12 14:51:19;;;;;;;16.43;8.17;;;6.30;63.90;;;;;;4925246;29;20272;-96
2022/12/12 18:42:36;;;;;;;27.10;12.57;;;3.90;67.50;;;;;;5698236;23;20256;-96
2022/12/12 18:48:24;;;;;;;23.73;11.97;;;3.80;67.30;;;;;;4925308;29;20705;-96
2022/12/12 18:51:19;;;;;;;23.07;12.60;;;3.80;67.40;;;;;;4926335;29;20287;-95
2022/12/12 18:54:20;;;;;;;;;;;;;;;;;;;;;
2022/12/12 18:57:24;;;;;;;22.30;12.20;;;3.80;67.30;;;;;;4950053;29;20191;-95
2022/12/12 19:07:24;;;;;;;30.67;12.20;;;3.70;67.50;;;;;;4941354;29;20282;-96
2022/12/12 19:13:19;;;;;;;18.93;10.43;;;3.60;67.20;;;;;;4900875;29;20221;-96
2022/12/12 19:16:13;;;;;;;23.90;12.30;;;3.60;67.50;;;;;;4902772;29;20217;-96
2022/12/12 19:18:55;;;;;;;25.23;12.37;;;3.50;67.50;;;;;;4883131;29;20232;-96
2022/12/12 19:21:41;;;;;;;22.70;11.13;;;3.50;67.80;;;;;;4884767;29;20281;-96
2022/12/12 19:24:12;;;;;;;26.07;12.30;;;3.50;68.40;;;;;;4883233;29;20217;-95
2022/12/12 19:26:57;;;;;;;26.80;12.30;;;3.50;67.70;;;;;;4881754;29;20270;-96
2022/12/12 19:29:40;;;;;;;20.47;10.47;;;3.50;67.80;;;;;;4884132;29;20269;-96
2022/12/12 19:32:11;;;;;;;26.77;11.63;;;3.50;67.60;;;;;;4897935;29;20273;-96
2022/12/12 19:35:17;;;;;;;17.07;10.93;;;3.40;67.60;;;;;;4911253;29;20233;-96
2022/12/12 19:38:26;;;;;;;25.53;12.07;;;3.40;67.90;;;;;;4904634;29;20225;-96
2022/12/12 19:50:24;;;;;;;;;;;;;;;;;;;;;
2022/12/12 19:56:39;;;;;;;29.20;12.53;;;3.30;68.00;;;;;;4876058;29;20228;-96
2022/12/12 19:59:39;;;;;;;25.37;11.47;;;3.30;68.10;;;;;;4810146;29;20235;-96
2022/12/12 20:05:44;;;;;;;26.83;12.57;;;3.20;67.90;;;;;;4854757;29;20337;-96
2022/12/12 20:11:26;;;;;;;25.00;12.77;;;3.20;68.30;;;;;;4864156;29;20735;-96
2022/12/12 20:20:13;;;;;;;28.47;14.83;;;3.10;67.90;;;;;;4867376;29;20605;-94
2022/12/12 20:29:27;;;;;;;;;;;;;;;;;;;;;
2022/12/12 20:34:59;;;;;;;25.73;12.73;;;3.00;68.30;;;;;;4902115;29;20217;-94
2022/12/12 20:37:41;;;;;;;28.50;14.13;;;3.00;68.20;;;;;;4903801;29;20197;-93
2022/12/12 20:40:31;;;;;;;32.73;13.93;;;2.90;68.30;;;;;;4904568;29;20245;-95
2022/12/12 20:43:19;;;;;;;29.50;13.50;;;3.00;68.20;;;;;;4939788;29;20213;-94
2022/12/12 20:46:14;;;;;;;32.23;14.00;;;2.90;68.40;;;;;;4923746;29;20228;-95
2022/12/12 20:49:07;;;;;;;31.23;14.07;;;2.90;68.20;;;;;;4918462;29;20225;-94
2022/12/12 20:52:19;;;;;;;28.20;12.80;;;2.90;68.30;;;;;;4916083;29;20231;-95
2022/12/12 20:55:14;;;;;;;32.57;13.37;;;2.90;68.30;;;;;;4917256;29;20244;-94
2022/12/12 20:57:44;;;;;;;19.33;11.27;;;2.80;68.20;;;;;;4909670;29;20189;-95
2022/12/12 21:00:34;;;;;;;30.10;14.17;;;2.80;68.10;;;;;;4919302;29;20288;-94
2022/12/12 21:03:32;;;;;;;22.20;11.43;;;2.80;68.50;;;;;;4919281;29;20213;-94
2022/12/12 21:06:30;;;;;;;22.10;11.47;;;2.70;69.20;;;;;;4915468;29;20205;-94
2022/12/12 21:09:31;;;;;;;25.37;11.73;;;2.70;68.50;;;;;;4914049;29;20201;-93
2022/12/12 21:12:24;;;;;;;24.00;12.40;;;2.70;68.30;;;;;;4909773;29;20216;-94
2022/12/12 21:14:54;;;;;;;31.30;14.33;;;2.70;68.60;;;;;;4908711;29;20271;-92
2022/12/12 21:17:41;;;;;;;27.87;11.97;;;2.70;68.40;;;;;;4912403;29;20218;-93
2022/12/12 21:20:17;;;;;;;21.30;11.27;;;2.60;68.70;;;;;;4911239;29;20233;-93
2022/12/12 21:22:48;;;;;;;31.97;13.03;;;2.60;69.30;;;;;;4894700;29;21046;-94
2022/12/12 21:25:20;;;;;;;27.27;11.63;;;2.60;68.50;;;;;;4909187;29;20233;-93
2022/12/12 21:27:50;;;;;;;23.43;11.87;;;2.50;68.60;;;;;;4905201;29;20635;-94
2022/12/12 21:30:20;;;;;;;28.47;13.07;;;2.60;68.70;;;;;;4902288;29;21005;-93
2022/12/12 21:32:52;;;;;;;23.97;12.90;;;2.50;68.50;;;;;;4901382;29;20217;-94
2022/12/12 21:35:53;;;;;;;23.90;13.03;;;2.60;68.90;;;;;;4906265;29;20227;-94
2022/12/12 21:38:34;;;;;;;22.67;10.87;;;2.50;68.90;;;;;;4908022;29;20722;-93
2022/12/12 21:41:06;;;;;;;24.50;11.23;;;2.50;69.20;;;;;;4904219;29;20206;-93
2022/12/12 21:44:02;;;;;;;24.23;12.20;;;2.50;69.10;;;;;;4906587;29;20205;-94
2022/12/12 21:46:42;;;;;;;23.67;11.90;;;2.50;69.40;;;;;;4894496;29;20204;-93
2022/12/12 21:49:27;;;;;;;23.37;11.83;;;2.50;70.30;;;;;;4909890;29;20212;-93
2022/12/12 21:52:02;;;;;;;21.27;10.90;;;2.50;69.40;;;;;;4919948;29;20201;-94
2022/12/12 21:54:40;;;;;;;29.33;12.97;;;2.50;69.60;;;;;;4917657;29;20227;-93
2022/12/12 21:57:10;;;;;;;24.20;13.13;;;2.50;69.60;;;;;;4907071;29;20209;-93
2022/12/12 21:59:53;;;;;;;;;;;;;;;;;;;;;
2022/12/12 22:02:45;;;;;;;25.47;13.83;;;2.40;69.20;;;;;;4903417;29;20218;-94
2022/12/12 22:08:17;;;;;;;25.13;13.77;;;2.40;69.60;;;;;;4905516;29;20691;-94
2022/12/12 22:10:55;;;;;;;25.40;13.17;;;2.40;69.40;;;;;;4904072;29;20209;-94
2022/12/12 22:14:02;;;;;;;31.43;14.03;;;2.40;69.50;;;;;;4904462;29;20645;-93
2022/12/12 22:19:46;;;;;;;25.93;11.70;;;2.40;69.80;;;;;;4901181;29;20221;-94
2022/12/12 22:22:54;;;;;;;30.17;12.43;;;2.40;69.90;;;;;;4900357;29;20214;-94
2022/12/12 22:28:27;;;;;;;24.27;12.33;;;2.40;70.10;;;;;;4826938;29;20207;-93
2022/12/12 22:30:54;;;;;;;27.90;13.10;;;2.30;70.20;;;;;;4847566;29;20246;-93
2022/12/12 22:33:24;;;;;;;25.13;12.70;;;2.40;70.20;;;;;;4901530;29;20256;-94
2022/12/12 22:35:53;;;;;;;24.93;12.97;;;2.30;69.90;;;;;;4900097;29;20596;-94
2022/12/12 22:38:21;;;;;;;22.17;12.73;;;2.30;70.20;;;;;;4900080;29;20214;-93
2022/12/12 22:40:56;;;;;;;27.60;14.30;;;2.30;70.20;;;;;;4899496;29;20680;-93
2022/12/12 22:43:23;;;;;;;29.33;14.50;;;2.40;70.60;;;;;;4900045;29;20244;-94
2022/12/12 22:46:01;;;;;;;26.80;14.57;;;2.30;70.10;;;;;;4909620;29;20656;-94
2022/12/12 22:48:32;;;;;;;27.77;13.53;;;2.30;70.20;;;;;;4922630;29;20845;-92
2022/12/12 22:51:13;;;;;;;24.03;13.30;;;2.30;70.10;;;;;;4917247;29;20205;-93
2022/12/12 22:53:41;;;;;;;25.20;11.40;;;2.30;70.40;;;;;;4917614;29;20209;-94
2022/12/12 22:56:12;;;;;;;23.77;11.33;;;2.30;70.10;;;;;;4904038;29;20293;-93
2022/12/12 22:58:44;;;;;;;23.97;12.10;;;2.20;70.20;;;;;;4901481;29;20226;-93
2022/12/12 23:01:20;;;;;;;21.17;10.73;;;2.20;70.30;;;;;;4897691;29;20557;-93
2022/12/12 23:03:56;;;;;;;20.60;11.33;;;2.20;70.40;;;;;;4897472;29;20294;-92
2022/12/12 23:06:25;;;;;;;23.80;11.53;;;2.20;70.30;;;;;;4898910;29;20215;-93
2022/12/12 23:08:54;;;;;;;25.00;11.33;;;2.20;70.30;;;;;;4898345;29;20741;-92
2022/12/12 23:11:27;;;;;;;28.40;11.47;;;2.20;70.20;;;;;;4897737;29;20205;-93
2022/12/12 23:13:56;;;;;;;22.90;11.80;;;2.20;70.20;;;;;;4898968;29;20323;-93
2022/12/12 23:16:26;;;;;;;30.77;12.43;;;2.20;70.20;;;;;;4916144;29;20238;-93
2022/12/12 23:18:59;;;;;;;25.20;10.93;;;2.20;70.10;;;;;;4903389;29;20212;-92
2022/12/12 23:21:28;;;;;;;25.30;10.77;;;2.20;70.20;;;;;;4897567;29;20741;-92
2022/12/12 23:23:56;;;;;;;22.80;11.20;;;2.20;70.20;;;;;;4896165;29;20292;-92
2022/12/12 23:26:29;;;;;;;24.37;11.13;;;2.20;70.20;;;;;;4898528;29;20596;-93
2022/12/12 23:29:00;;;;;;;27.93;12.03;;;2.20;70.30;;;;;;4906525;29;20229;-93
2022/12/12 23:31:30;;;;;;;21.43;10.40;;;2.10;70.30;;;;;;4917665;29;20283;-92
2022/12/12 23:34:02;;;;;;;26.60;11.67;;;2.10;70.20;;;;;;4897886;29;20213;-93
2022/12/12 23:36:41;;;;;;;25.67;12.13;;;2.10;70.20;;;;;;4897802;29;20263;-92
2022/12/12 23:39:18;;;;;;;28.50;11.93;;;2.10;70.00;;;;;;4897646;29;20202;-92
2022/12/12 23:41:46;;;;;;;24.90;11.57;;;2.10;70.30;;;;;;4896811;29;20248;-93
2022/12/12 23:44:18;;;;;;;22.50;10.87;;;2.10;70.10;;;;;;4901992;29;20201;-93
2022/12/12 23:46:45;;;;;;;25.87;12.50;;;2.00;70.10;;;;;;4904960;29;20568;-93
2022/12/12 23:49:19;;;;;;;23.73;10.83;;;2.00;70.10;;;;;;4898769;29;20237;-92
2022/12/12 23:51:59;;;;;;;23.83;10.87;;;2.10;70.20;;;;;;4915444;29;20242;-92
2022/12/12 23:54:43;;;;;;;21.93;10.07;;;2.00;70.20;;;;;;4926673;29;20210;-93
2022/12/12 23:57:14;;;;;;;18.83;10.83;;;2.00;70.00;;;;;;4929204;29;20226;-93
2022/12/12 23:59:48;;;;;;;20.73;9.70;;;2.00;69.90;;;;;;4916206;29;20208;-93
